Hlavní strana
METAR-TAF:

METAR-TAF

Letiště :

Rašt, Írán

zeměpisná šířka: 37-12N, zeměpisná délka: 049-38E, výška: -7 m

Aktuální stav počasí

Zpráva byla vytvořena před 7 hodinami a 43 minutami, v 16:30 UTC
Jihojihozápadní vítr 6 kt
Teplota 9°C
Vlhkost vzduchu 93%
Tlak 1023 hPa
Viditelnost: 6000 m
Oblačno až skoro zataženo ve výšce 400 ft
Skoro jasno ve výšce 1000 ft, Cumulonimbus.
Zataženo ve výšce 6000 ft
slabý déšť

METAR: OIGG 071630Z 21006KT 6000 -RA BKN004 FEW010CB OVC060 09/08 Q1023

Čas: 03:43 (00:13 UTC)


TAF: chybějící

Stav a předpovědi počasí z více než 4 000 letišť (zprávy METAR a TAF).

Červené a žluté tečky na mapě představují dostupné meteorologické stanice.

Když kurzor umístíte na tečku, zobrazí se název stanice.

Pak kliknutím zobrazíte stav a předpověď počasí.

Chcete-li změnit mapu, kliknutím na zelené tlačítko se znaménkem +mapu přiblížíte, kliknutím na zelené tlačítko se znaménkem – mapu oddálíte a kliknutím na zelené šipky přejdete na sousední mapy.


METAR-TAF: